Time;durP1;ratioP1;P1;durP2;ratioP2;P2;SDS_P1;SDS_P2;PMS_P1;PMS_P2;Temp;Humidity;BMP_temperature;BMP_pressure;BME280_temperature;BME280_humidity;BME280_pressure;Samples;Min_cycle;Max_cycle;Signal;HPM_P1;HPM_P2
2024/02/07 00:02:23;;;;;;;26.75;18.27;;;10.00;99.80;;;;;;5034490;28;20030;-52
2024/02/07 00:04:48;;;;;;;23.73;18.05;;;10.10;99.20;;;;;;5034493;28;20121;-52
2024/02/07 00:07:14;;;;;;;31.52;20.77;;;10.20;98.60;;;;;;5034402;28;20041;-52
2024/02/07 00:09:40;;;;;;;67.28;43.67;;;10.20;98.80;;;;;;5032354;28;20124;-52
2024/02/07 00:12:07;;;;;;;39.80;28.05;;;;;;;;;;5032250;28;20037;-51
2024/02/07 00:14:32;;;;;;;33.92;24.10;;;10.30;97.70;;;;;;5015624;28;20091;-52
2024/02/07 00:16:58;;;;;;;30.30;23.73;;;10.30;97.90;;;;;;5034336;28;20029;-52
2024/02/07 00:19:24;;;;;;;35.00;27.05;;;10.30;97.80;;;;;;5034119;28;20029;-53
2024/02/07 00:21:50;;;;;;;31.10;22.38;;;10.40;97.90;;;;;;5046344;28;20036;-52
2024/02/07 00:24:16;;;;;;;31.95;20.80;;;10.40;97.30;;;;;;5054035;28;20527;-52
2024/02/07 00:26:42;;;;;;;37.33;25.10;;;10.30;97.30;;;;;;5054097;28;20056;-51
2024/02/07 00:29:07;;;;;;;47.35;28.73;;;10.30;97.30;;;;;;5053949;28;20476;-52
2024/02/07 00:31:33;;;;;;;45.58;28.38;;;10.30;97.40;;;;;;5053874;28;20036;-52
2024/02/07 00:33:59;;;;;;;53.90;40.80;;;10.30;97.30;;;;;;5052541;28;20036;-52
2024/02/07 00:36:25;;;;;;;45.78;33.47;;;10.20;97.80;;;;;;5053790;28;20025;-52
2024/02/07 00:38:51;;;;;;;43.38;32.03;;;10.20;97.60;;;;;;5053768;28;20464;-52
2024/02/07 00:41:20;;;;;;;73.55;52.33;;;10.30;97.40;;;;;;5053813;28;20057;-53
2024/02/07 00:43:46;;;;;;;62.20;43.83;;;10.40;97.50;;;;;;5053736;28;20388;-52
2024/02/07 00:46:12;;;;;;;49.63;35.22;;;10.20;97.70;;;;;;5053540;28;20027;-53
2024/02/07 00:48:40;;;;;;;51.05;35.28;;;10.30;98.20;;;;;;5053540;28;20492;-52
2024/02/07 00:51:07;;;;;;;47.10;33.05;;;10.30;97.50;;;;;;5053142;28;20037;-53
2024/02/07 00:53:32;;;;;;;46.10;31.45;;;10.20;98.20;;;;;;5053145;28;20061;-53
2024/02/07 00:55:58;;;;;;;52.42;37.28;;;10.30;97.60;;;;;;5053279;28;20025;-51
2024/02/07 00:58:24;;;;;;;45.35;32.22;;;9.90;98.40;;;;;;5053320;28;20071;-52
2024/02/07 01:00:50;;;;;;;38.53;27.63;;;9.80;99.00;;;;;;5053071;28;20456;-52
2024/02/07 01:03:16;;;;;;;26.08;19.77;;;9.50;99.90;;;;;;5053297;28;20037;-52
2024/02/07 01:05:41;;;;;;;25.90;20.80;;;9.30;99.90;;;;;;5051064;28;20033;-51
2024/02/07 01:08:07;;;;;;;24.70;18.38;;;9.40;99.90;;;;;;5053220;28;20029;-52
2024/02/07 01:10:33;;;;;;;26.13;19.52;;;9.30;99.90;;;;;;5053137;28;20099;-52
2024/02/07 01:12:59;;;;;;;26.63;19.63;;;9.40;99.90;;;;;;5052998;28;20029;-52
2024/02/07 01:15:24;;;;;;;30.35;21.80;;;9.30;99.90;;;;;;5053075;28;20602;-52
2024/02/07 01:17:50;;;;;;;32.22;23.05;;;9.30;99.90;;;;;;5053036;28;20032;-52
2024/02/07 01:20:16;;;;;;;46.47;32.47;;;9.40;99.90;;;;;;5050724;28;20128;-52
2024/02/07 01:22:42;;;;;;;35.75;26.25;;;9.50;99.90;;;;;;5052866;28;20541;-52
2024/02/07 01:25:08;;;;;;;33.63;23.50;;;9.70;99.90;;;;;;5052887;28;20025;-52
2024/02/07 01:27:34;;;;;;;37.92;25.65;;;9.70;99.70;;;;;;5050170;28;20037;-52
2024/02/07 01:30:01;;;;;;;41.13;26.88;;;9.80;99.40;;;;;;5050636;28;20503;-52
2024/02/07 01:32:27;;;;;;;37.63;26.65;;;9.80;99.10;;;;;;5050467;28;20041;-52
2024/02/07 01:34:53;;;;;;;34.22;24.27;;;9.80;99.40;;;;;;5050371;28;20032;-52
2024/02/07 01:37:20;;;;;;;28.45;22.48;;;9.80;98.80;;;;;;5050330;28;20103;-52
2024/02/07 01:39:45;;;;;;;29.83;22.65;;;9.90;98.80;;;;;;5050148;28;20045;-52
2024/02/07 01:42:11;;;;;;;37.40;24.10;;;9.90;98.40;;;;;;5050381;28;20045;-51
2024/02/07 01:44:38;;;;;;;35.15;26.63;;;9.70;99.40;;;;;;5050193;28;20388;-52
2024/02/07 01:47:14;;;;;;;32.53;22.33;;;9.60;99.90;;;;;;5050092;28;20484;-52
2024/02/07 01:49:48;;;;;;;33.45;23.90;;;9.70;99.80;;;;;;5033476;28;20025;-52
2024/02/07 01:52:17;;;;;;;29.27;21.35;;;9.80;99.10;;;;;;5050006;28;20061;-52
2024/02/07 01:54:42;;;;;;;22.10;15.52;;;9.70;98.70;;;;;;5049831;28;20033;-52
2024/02/07 01:57:09;;;;;;;25.92;18.08;;;9.80;99.40;;;;;;5047377;28;20040;-52
2024/02/07 01:59:37;;;;;;;21.23;15.55;;;9.90;99.10;;;;;;5051958;28;20128;-52
2024/02/07 02:02:07;;;;;;;21.55;16.02;;;10.00;99.00;;;;;;5051033;28;20025;-52
2024/02/07 02:04:33;;;;;;;24.20;15.73;;;10.10;98.80;;;;;;5051549;28;20032;-52
2024/02/07 02:07:00;;;;;;;29.70;20.75;;;10.10;98.50;;;;;;5052115;28;20491;-52
2024/02/07 02:09:27;;;;;;;28.92;20.42;;;9.90;99.10;;;;;;5052119;28;20090;-52
2024/02/07 02:11:55;;;;;;;28.52;19.63;;;9.60;99.50;;;;;;5052110;28;20091;-52
2024/02/07 02:14:21;;;;;;;29.33;19.55;;;9.50;99.90;;;;;;5052116;28;20033;-52
2024/02/07 02:16:48;;;;;;;25.83;18.65;;;9.50;99.90;;;;;;5050783;28;20025;-52
2024/02/07 02:19:17;;;;;;;29.67;21.15;;;9.70;99.90;;;;;;5052015;28;20045;-52
2024/02/07 02:22:11;;;;;;;32.55;22.50;;;9.60;99.90;;;;;;5052017;28;20048;-52
2024/02/07 02:24:49;;;;;;;27.85;19.02;;;9.50;99.90;;;;;;5033364;28;20037;-52
2024/02/07 02:27:15;;;;;;;36.05;21.90;;;9.20;99.90;;;;;;5051960;28;20032;-52
2024/02/07 02:29:53;;;;;;;38.17;22.50;;;9.40;99.90;;;;;;5051877;28;20111;-52
2024/02/07 02:32:21;;;;;;;35.65;21.80;;;9.60;99.90;;;;;;5051917;28;20047;-52
2024/02/07 02:34:50;;;;;;;33.03;21.33;;;9.70;99.90;;;;;;5051962;28;20035;-52
2024/02/07 02:37:17;;;;;;;23.05;15.43;;;9.50;99.90;;;;;;5051908;28;20033;-52
2024/02/07 02:39:43;;;;;;;21.20;14.77;;;9.10;99.90;;;;;;5051884;28;20082;-52
2024/02/07 02:42:09;;;;;;;23.10;14.00;;;8.70;99.90;;;;;;5051895;28;20480;-51
2024/02/07 02:44:35;;;;;;;17.13;13.55;;;;;;;;;;5050601;28;20033;-52
2024/02/07 02:47:02;;;;;;;18.08;13.15;;;8.30;99.90;;;;;;5052096;28;20036;-51
2024/02/07 02:49:29;;;;;;;19.17;12.95;;;;;;;;;;5051727;28;20040;-51
2024/02/07 02:51:55;;;;;;;16.33;11.68;;;8.10;99.90;;;;;;5051405;28;20037;-52
2024/02/07 02:54:21;;;;;;;12.68;9.93;;;7.90;99.90;;;;;;5066496;28;20047;-52
2024/02/07 02:56:48;;;;;;;14.98;10.68;;;7.60;99.90;;;;;;5051456;28;20107;-51
2024/02/07 02:59:15;;;;;;;12.02;9.15;;;;;;;;;;5051663;28;20131;-52
2024/02/07 03:01:41;;;;;;;14.13;9.93;;;7.10;99.90;;;;;;5051738;28;20036;-52
2024/02/07 03:04:07;;;;;;;15.15;9.70;;;7.00;99.90;;;;;;5049656;28;20048;-51
2024/02/07 03:06:58;;;;;;;13.63;8.85;;;6.80;99.90;;;;;;5051705;28;20108;-51
2024/02/07 03:09:26;;;;;;;14.90;9.55;;;6.60;99.90;;;;;;5050220;28;20029;-51
2024/02/07 03:11:53;;;;;;;15.60;10.63;;;;;;;;;;5051712;28;20033;-52
2024/02/07 03:14:18;;;;;;;14.88;9.90;;;6.90;99.90;;;;;;5051731;28;20072;-51
2024/02/07 03:16:45;;;;;;;13.93;9.10;;;;;;;;;;5055309;28;20053;-52
2024/02/07 03:19:12;;;;;;;11.57;7.93;;;;;;;;;;5036534;28;20037;-51
2024/02/07 03:21:41;;;;;;;15.15;8.98;;;6.30;99.90;;;;;;5055163;28;20499;-52
2024/02/07 03:24:09;;;;;;;11.30;8.68;;;6.20;99.90;;;;;;5055205;28;20090;-51
2024/02/07 03:26:34;;;;;;;10.65;7.20;;;6.10;99.90;;;;;;5055138;28;20043;-51
2024/02/07 03:29:01;;;;;;;13.40;9.02;;;6.10;99.90;;;;;;5054999;28;20025;-51
2024/02/07 03:31:27;;;;;;;11.93;8.68;;;6.20;99.90;;;;;;5055079;28;20036;-51
2024/02/07 03:33:54;;;;;;;10.32;7.68;;;6.20;99.90;;;;;;5055037;28;20032;-51
2024/02/07 03:36:21;;;;;;;11.25;7.15;;;6.20;99.90;;;;;;5054894;28;20040;-51
2024/02/07 03:38:47;;;;;;;8.25;5.78;;;6.20;99.90;;;;;;5054855;28;20381;-51
2024/02/07 03:41:14;;;;;;;11.10;7.22;;;6.20;99.90;;;;;;5054841;28;20082;-51
2024/02/07 03:43:40;;;;;;;13.07;9.60;;;6.30;99.90;;;;;;5054924;28;20412;-51
2024/02/07 03:46:06;;;;;;;11.15;7.47;;;6.30;99.90;;;;;;5054650;28;20025;-51
2024/02/07 03:48:36;;;;;;;10.82;8.25;;;6.30;99.90;;;;;;5052795;28;20048;-51
2024/02/07 03:51:02;;;;;;;8.98;5.47;;;6.10;99.90;;;;;;5054732;28;20040;-51
2024/02/07 03:53:28;;;;;;;15.45;8.68;;;6.00;99.90;;;;;;5054506;28;20103;-51
2024/02/07 03:55:54;;;;;;;11.63;7.57;;;6.00;99.90;;;;;;5052087;28;20497;-52
2024/02/07 03:58:21;;;;;;;15.95;7.72;;;6.00;99.90;;;;;;5034943;28;20038;-51
2024/02/07 04:00:47;;;;;;;12.30;8.43;;;6.10;99.90;;;;;;5049358;28;20045;-53
2024/02/07 04:03:13;;;;;;;15.13;8.73;;;6.20;99.90;;;;;;5034954;28;20043;-54
2024/02/07 04:05:39;;;;;;;12.38;9.43;;;6.30;99.90;;;;;;5034581;28;20026;-53
2024/02/07 04:08:05;;;;;;;12.88;8.68;;;6.60;99.90;;;;;;5034510;28;20037;-53
2024/02/07 04:10:40;;;;;;;11.82;8.88;;;6.80;99.90;;;;;;5034307;28;20055;-53
2024/02/07 05:15:51;;;;;;;12.65;7.53;;;4.90;99.90;;;;;;5033242;28;20495;-52
2024/02/07 05:18:21;;;;;;;7.93;5.88;;;4.90;99.90;;;;;;5047507;28;20041;-52
2024/02/07 05:20:48;;;;;;;8.82;6.30;;;4.90;99.90;;;;;;5030867;28;20311;-53
2024/02/07 05:23:16;;;;;;;11.77;8.23;;;5.00;99.90;;;;;;5033035;28;20044;-52
2024/02/07 05:25:45;;;;;;;12.13;7.40;;;5.20;99.90;;;;;;5043039;28;20487;-52
2024/02/07 05:28:12;;;;;;;11.57;8.63;;;5.40;99.90;;;;;;5050888;28;20040;-53
2024/02/07 05:30:39;;;;;;;9.20;6.90;;;5.60;99.90;;;;;;5053429;28;20037;-52
2024/02/07 05:33:05;;;;;;;13.90;7.65;;;5.80;99.90;;;;;;5054506;28;20040;-53
2024/02/07 05:35:31;;;;;;;11.25;9.13;;;5.90;99.90;;;;;;5053589;28;20373;-53
2024/02/07 05:37:57;;;;;;;11.63;8.20;;;6.00;99.90;;;;;;5053028;28;20028;-53
2024/02/07 05:40:22;;;;;;;12.85;7.68;;;6.10;99.90;;;;;;5052546;28;20044;-52
2024/02/07 05:42:48;;;;;;;9.77;6.25;;;6.10;99.90;;;;;;5052545;28;20032;-52
2024/02/07 05:45:14;;;;;;;10.07;7.03;;;6.00;99.90;;;;;;5052495;28;20071;-52
2024/02/07 05:47:42;;;;;;;9.18;6.15;;;5.90;99.90;;;;;;5050920;28;20060;-52
2024/02/07 05:50:09;;;;;;;10.85;7.30;;;5.70;99.90;;;;;;5034505;28;20033;-53
2024/02/07 05:52:40;;;;;;;10.98;7.03;;;5.60;99.90;;;;;;5045036;28;20061;-52
2024/02/07 05:55:06;;;;;;;8.77;5.38;;;5.40;99.90;;;;;;5067000;28;20045;-54
2024/02/07 05:57:35;;;;;;;12.00;8.68;;;5.40;99.90;;;;;;5032543;28;20036;-52
2024/02/07 06:00:05;;;;;;;12.75;7.13;;;5.60;99.90;;;;;;5032522;28;20044;-52
2024/02/07 06:02:31;;;;;;;13.88;7.85;;;5.60;99.90;;;;;;5032409;28;20033;-52
2024/02/07 06:05:02;;;;;;;6.90;4.70;;;5.70;99.90;;;;;;5040191;28;20134;-52
2024/02/07 06:07:29;;;;;;;10.52;8.15;;;5.80;99.90;;;;;;5045782;28;20034;-54
2024/02/07 06:09:55;;;;;;;14.85;9.35;;;5.90;99.90;;;;;;5037266;28;20029;-52
2024/02/07 06:12:21;;;;;;;11.45;8.32;;;6.10;99.90;;;;;;5038601;28;20045;-52
2024/02/07 06:14:47;;;;;;;11.52;8.57;;;6.30;99.90;;;;;;5045019;28;20116;-53
2024/02/07 06:17:13;;;;;;;12.50;9.52;;;6.40;99.90;;;;;;5047257;28;20033;-53
2024/02/07 06:19:39;;;;;;;12.27;8.77;;;6.50;99.90;;;;;;5047078;28;20040;-53
2024/02/07 06:22:05;;;;;;;17.55;12.05;;;6.50;99.90;;;;;;5038108;28;20477;-52
2024/02/07 06:24:31;;;;;;;84.20;63.72;;;6.40;99.90;;;;;;5041078;28;20017;-52
2024/02/07 06:26:58;;;;;;;93.60;71.47;;;6.50;99.90;;;;;;5038587;28;20090;-53
2024/02/07 06:29:24;;;;;;;105.82;74.57;;;7.20;99.90;;;;;;5042348;28;20022;-53
2024/02/07 06:31:50;;;;;;;32.67;26.88;;;;;;;;;;5038254;28;20366;-52
2024/02/07 06:34:16;;;;;;;13.45;10.55;;;8.70;99.90;;;;;;5037957;28;20040;-52
2024/02/07 06:36:41;;;;;;;16.75;13.35;;;9.30;99.90;;;;;;5031531;28;20029;-52
2024/02/07 06:39:07;;;;;;;11.60;9.18;;;10.20;99.90;;;;;;5031792;28;20037;-51
2024/02/07 06:41:33;;;;;;;11.55;8.85;;;;;;;;;;5032002;28;20025;-53
2024/02/07 06:43:59;;;;;;;11.25;8.88;;;11.80;97.50;;;;;;5031706;28;20397;-55
2024/02/07 06:46:25;;;;;;;15.07;10.13;;;12.20;96.40;;;;;;5013485;28;20033;-53
2024/02/07 06:48:51;;;;;;;14.75;10.32;;;12.60;95.60;;;;;;5031887;28;20032;-54
2024/02/07 06:51:16;;;;;;;15.13;10.05;;;13.70;94.70;;;;;;5035431;28;20033;-54
2024/02/07 06:53:43;;;;;;;12.38;9.20;;;;;;;;;;5035691;28;20053;-52
2024/02/07 06:56:09;;;;;;;13.48;9.00;;;;;;;;;;5035822;28;20053;-53
2024/02/07 06:58:35;;;;;;;9.52;7.35;;;14.10;92.20;;;;;;5035748;28;20036;-52
2024/02/07 07:01:00;;;;;;;13.23;9.27;;;14.10;92.10;;;;;;5038574;28;20045;-53
2024/02/07 07:03:26;;;;;;;12.70;8.13;;;14.00;92.20;;;;;;5055526;28;20021;-55
2024/02/07 07:05:52;;;;;;;12.18;8.52;;;13.20;92.40;;;;;;5035820;28;20476;-55
2024/02/07 07:08:18;;;;;;;10.15;7.75;;;13.50;93.50;;;;;;5052058;28;20032;-53
2024/02/07 07:10:44;;;;;;;11.55;8.80;;;13.90;93.50;;;;;;5034453;28;20026;-53
2024/02/07 07:13:11;;;;;;;11.57;7.45;;;;;;;;;;5035467;28;20080;-53
2024/02/07 07:15:37;;;;;;;12.00;8.65;;;16.30;90.60;;;;;;5035836;28;20037;-53
2024/02/07 07:18:03;;;;;;;10.05;7.72;;;;;;;;;;5035192;28;20036;-53
2024/02/07 07:20:31;;;;;;;10.25;7.97;;;;;;;;;;5033891;28;20075;-53
2024/02/07 07:23:03;;;;;;;11.55;7.68;;;;;;;;;;5050960;28;20108;-53
2024/02/07 07:25:29;;;;;;;10.60;7.13;;;;;;;;;;5055252;28;20032;-54
2024/02/07 07:27:56;;;;;;;8.40;6.03;;;;;;;;;;5054544;28;20029;-52
2024/02/07 07:30:21;;;;;;;10.50;7.90;;;13.50;99.90;;;;;;5055217;28;20483;-54
2024/02/07 07:32:47;;;;;;;9.02;6.63;;;13.20;93.30;;;;;;5039560;28;20029;-54
2024/02/07 07:35:13;;;;;;;9.13;6.78;;;13.80;93.60;;;;;;5035108;28;20034;-52
2024/02/07 07:37:39;;;;;;;12.23;7.95;;;14.60;92.80;;;;;;5035075;28;20026;-52
2024/02/07 07:40:05;;;;;;;15.43;8.63;;;15.40;92.10;;;;;;5034941;28;20370;-54
2024/02/07 07:42:31;;;;;;;12.10;9.55;;;16.90;91.00;;;;;;5037712;28;20033;-53
2024/02/07 07:44:57;;;;;;;11.38;9.65;;;17.50;90.30;;;;;;5059144;28;20037;-52
2024/02/07 07:47:23;;;;;;;11.13;8.88;;;;;;;;;;5043395;28;20029;-54
2024/02/07 07:49:48;;;;;;;11.63;9.68;;;19.20;87.90;;;;;;5043752;28;20033;-52
2024/02/07 07:52:14;;;;;;;14.30;10.13;;;;;;;;;;5043094;28;20096;-51
2024/02/07 07:54:40;;;;;;;14.73;10.38;;;20.90;83.60;;;;;;5041021;28;20045;-52
2024/02/07 07:57:06;;;;;;;14.90;9.30;;;;;;;;;;5036517;28;20037;-51
2024/02/07 07:59:33;;;;;;;14.48;9.57;;;;;;;;;;5046196;28;20060;-55
2024/02/07 08:01:59;;;;;;;11.45;9.68;;;;;;;;;;5045076;28;20061;-52
2024/02/07 08:04:26;;;;;;;10.70;8.85;;;;;;;;;;5045157;28;20045;-54
2024/02/07 08:06:52;;;;;;;11.45;8.43;;;20.50;82.40;;;;;;5044585;28;20439;-51
2024/02/07 08:09:19;;;;;;;11.15;8.02;;;20.50;83.00;;;;;;5043694;28;20492;-49
2024/02/07 08:11:45;;;;;;;11.05;8.40;;;20.50;82.20;;;;;;5044689;28;20389;-52
2024/02/07 08:14:12;;;;;;;10.00;7.65;;;;;;;;;;5040826;28;20021;-51
2024/02/07 08:16:38;;;;;;;9.10;7.95;;;;;;;;;;5044656;28;20167;-50
2024/02/07 08:19:04;;;;;;;11.07;8.38;;;21.10;99.90;;;;;;5018834;28;20075;-52
2024/02/07 08:21:30;;;;;;;11.15;8.48;;;21.70;81.20;;;;;;5048855;28;20501;-52
2024/02/07 08:23:57;;;;;;;9.80;8.13;;;22.70;96.80;;;;;;5034244;28;20116;-50
2024/02/07 08:26:23;;;;;;;10.30;7.45;;;21.80;78.70;;;;;;5051172;28;20049;-52
2024/02/07 08:28:49;;;;;;;8.38;7.05;;;21.30;79.10;;;;;;5040913;28;20174;-51
2024/02/07 08:31:16;;;;;;;11.18;7.88;;;19.70;80.00;;;;;;5035475;28;20033;-52
2024/02/07 08:33:42;;;;;;;12.25;8.43;;;19.60;81.30;;;;;;5033856;28;20362;-52
2024/02/07 08:36:08;;;;;;;12.18;8.07;;;20.10;81.80;;;;;;5037482;28;20079;-51
2024/02/07 08:38:34;;;;;;;11.98;8.43;;;20.80;81.20;;;;;;5033955;28;20026;-52
2024/02/07 08:41:01;;;;;;;10.57;8.02;;;;;;;;;;5033704;28;20034;-51
2024/02/07 08:43:26;;;;;;;11.40;8.85;;;22.30;85.50;;;;;;5033709;28;20080;-53
2024/02/07 08:45:52;;;;;;;10.43;8.50;;;22.10;79.00;;;;;;5033702;28;20029;-52
2024/02/07 08:48:18;;;;;;;11.90;9.02;;;21.70;79.40;;;;;;5033690;28;20029;-53
2024/02/07 08:50:44;;;;;;;12.50;9.38;;;;;;;;;;5033628;28;20029;-52
2024/02/07 08:53:13;;;;;;;13.32;7.75;;;23.40;78.30;;;;;;5051562;28;20124;-53
2024/02/07 08:55:39;;;;;;;13.02;8.25;;;22.70;77.80;;;;;;5053064;28;20055;-50
2024/02/07 08:58:04;;;;;;;15.60;9.82;;;21.00;78.60;;;;;;5055844;28;20045;-52
2024/02/07 09:00:30;;;;;;;13.02;8.40;;;19.90;81.20;;;;;;5043595;28;20028;-51
2024/02/07 09:02:56;;;;;;;12.07;7.80;;;18.90;82.60;;;;;;5042821;28;20083;-52
2024/02/07 09:05:22;;;;;;;11.32;7.65;;;17.80;84.50;;;;;;5044964;28;20037;-53
2024/02/07 09:07:48;;;;;;;14.07;8.00;;;17.70;85.90;;;;;;5044211;28;20408;-54
2024/02/07 09:10:17;;;;;;;11.85;7.63;;;17.40;87.00;;;;;;5040069;28;20025;-51
2024/02/07 09:12:43;;;;;;;10.77;7.65;;;17.10;87.80;;;;;;5052818;28;20433;-52
2024/02/07 09:15:09;;;;;;;15.55;8.20;;;16.80;89.00;;;;;;5053243;28;20127;-52
2024/02/07 09:17:35;;;;;;;10.73;7.22;;;17.20;89.40;;;;;;5053124;28;20052;-51
2024/02/07 09:20:01;;;;;;;13.68;8.60;;;17.50;88.70;;;;;;5043573;28;20045;-53
2024/02/07 09:22:27;;;;;;;15.88;8.50;;;17.90;88.20;;;;;;5038204;28;20372;-51
2024/02/07 09:24:53;;;;;;;21.23;11.45;;;17.90;87.30;;;;;;5032822;28;20033;-50
2024/02/07 09:27:19;;;;;;;19.90;11.77;;;18.40;86.80;;;;;;5031851;28;20029;-53
2024/02/07 09:29:45;;;;;;;21.98;12.07;;;;;;;;;;5032934;28;20359;-51
2024/02/07 09:32:11;;;;;;;17.65;7.40;;;19.70;85.70;;;;;;5032791;28;20488;-52
2024/02/07 09:34:42;;;;;;;21.10;7.85;;;20.40;83.60;;;;;;5032803;28;20109;-53
2024/02/07 09:37:07;;;;;;;9.95;5.55;;;20.90;82.20;;;;;;5032375;28;20495;-52
2024/02/07 09:39:33;;;;;;;9.30;5.57;;;21.20;80.70;;;;;;5040138;28;20044;-52
2024/02/07 09:42:02;;;;;;;10.80;6.50;;;21.20;79.70;;;;;;5041853;28;20022;-52
2024/02/07 09:44:28;;;;;;;13.95;7.43;;;;;;;;;;5040898;28;20108;-52
2024/02/07 09:46:57;;;;;;;14.70;9.95;;;21.60;79.60;;;;;;5039724;28;20488;-49
2024/02/07 09:49:24;;;;;;;13.05;7.60;;;21.60;79.50;;;;;;5042921;28;20576;-51
2024/02/07 09:51:50;;;;;;;11.60;6.80;;;21.30;79.30;;;;;;5038601;28;20477;-50
2024/02/07 09:54:19;;;;;;;10.80;6.80;;;21.30;79.30;;;;;;5042947;28;20095;-51
2024/02/07 09:56:46;;;;;;;13.98;8.32;;;21.10;79.30;;;;;;5010917;28;20037;-53
2024/02/07 09:59:13;;;;;;;12.52;8.07;;;21.10;79.80;;;;;;5000941;28;20192;-53
2024/02/07 10:01:39;;;;;;;15.73;9.30;;;21.10;80.30;;;;;;5020283;28;20595;-50
2024/02/07 10:04:13;;;;;;;18.67;9.73;;;21.00;80.60;;;;;;5019819;28;20033;-49
2024/02/07 10:06:39;;;;;;;21.45;13.32;;;21.00;80.80;;;;;;5020508;28;20037;-52
2024/02/07 10:09:07;;;;;;;30.23;16.20;;;21.00;80.70;;;;;;5019773;28;20076;-53
2024/02/07 10:11:33;;;;;;;15.50;9.77;;;20.90;81.10;;;;;;5018321;28;20509;-52
2024/02/07 10:14:01;;;;;;;16.13;8.27;;;20.80;80.80;;;;;;5010359;28;20497;-52
2024/02/07 10:16:27;;;;;;;10.60;7.00;;;20.70;82.10;;;;;;5010206;28;20092;-52
2024/02/07 10:18:53;;;;;;;10.68;5.90;;;21.00;82.00;;;;;;5009963;28;20042;-49
2024/02/07 10:21:19;;;;;;;14.27;6.68;;;21.80;81.40;;;;;;4993721;28;20132;-56
2024/02/07 10:23:45;;;;;;;27.15;7.50;;;;;;;;;;5010991;28;20124;-53
2024/02/07 10:26:13;;;;;;;14.07;7.03;;;;;;;;;;5029122;28;20048;-53
2024/02/07 10:28:39;;;;;;;6.07;5.47;;;;;;;;;;5049168;28;20051;-52
2024/02/07 10:31:05;;;;;;;15.00;7.10;;;;;;;;;;5043791;28;20030;-51
2024/02/07 10:33:44;;;;;;;9.70;6.32;;;;;;;;;;5041086;28;20579;-50
2024/02/07 10:36:11;;;;;;;9.43;7.25;;;;;;;;;;5041102;28;20075;-51
2024/02/07 10:38:37;;;;;;;9.10;5.53;;;;;;;;;;5036522;28;20030;-51
2024/02/07 10:41:03;;;;;;;7.82;6.15;;;;;;;;;;5031457;28;20393;-51
2024/02/07 10:43:36;;;;;;;9.40;6.47;;;;;;;;;;5042990;28;20476;-52
2024/02/07 10:46:13;;;;;;;9.00;4.55;;;;;;;;;;5042111;28;20033;-51
2024/02/07 10:48:39;;;;;;;7.18;4.70;;;;;;;;;;5039689;28;20042;-51
2024/02/07 10:51:06;;;;;;;90.60;50.60;;;24.20;99.10;;;;;;5038039;28;20040;-52
2024/02/07 10:53:37;;;;;;;6.35;4.60;;;;;;;;;;5011259;28;20049;-52
2024/02/07 10:56:28;;;;;;;20.67;13.00;;;23.40;74.80;;;;;;5027627;28;20099;-52
2024/02/07 10:58:54;;;;;;;47.30;29.17;;;;;;;;;;5021529;28;20485;-51
2024/02/07 11:01:22;;;;;;;6.85;5.20;;;;;;;;;;5012530;28;20424;-52
2024/02/07 11:03:58;;;;;;;8.88;4.47;;;22.30;76.80;;;;;;5024447;28;20045;-54
2024/02/07 11:06:27;;;;;;;5.53;4.18;;;;;;;;;;5023187;28;20025;-52
2024/02/07 11:08:57;;;;;;;5.70;4.15;;;22.20;99.90;;;;;;5030244;28;20408;-55
2024/02/07 11:11:27;;;;;;;6.38;3.60;;;22.10;77.30;;;;;;5010330;28;20500;-53
2024/02/07 11:13:54;;;;;;;8.48;5.35;;;21.80;98.60;;;;;;5027096;28;20125;-50
2024/02/07 11:16:20;;;;;;;8.77;4.32;;;21.90;77.60;;;;;;5002625;28;20057;-51
2024/02/07 11:18:45;;;;;;;25.92;7.05;;;22.50;78.10;;;;;;5015641;28;20045;-51
2024/02/07 11:21:14;;;;;;;11.05;5.15;;;;;;;;;;5021139;28;20520;-51
2024/02/07 11:23:41;;;;;;;9.90;4.25;;;;;;;;;;5023837;28;20397;-51
2024/02/07 11:26:08;;;;;;;9.05;4.10;;;23.10;75.60;;;;;;5036235;28;20195;-51
2024/02/07 11:28:35;;;;;;;5.55;3.70;;;23.00;76.30;;;;;;5045549;28;20103;-53
2024/02/07 11:31:02;;;;;;;7.43;4.00;;;22.60;76.00;;;;;;5051338;28;20481;-52
2024/02/07 11:33:31;;;;;;;8.43;4.40;;;22.30;76.40;;;;;;5049526;28;20073;-53
2024/02/07 11:36:17;;;;;;;4.82;3.25;;;22.20;77.00;;;;;;5033327;28;20119;-50
2024/02/07 11:38:53;;;;;;;9.13;4.60;;;22.20;77.80;;;;;;5035688;28;20026;-51
2024/02/07 11:41:19;;;;;;;6.70;3.45;;;22.20;78.00;;;;;;5036427;28;20059;-51
2024/02/07 11:43:45;;;;;;;5.97;4.13;;;22.10;76.60;;;;;;5017592;28;20092;-51
2024/02/07 11:46:12;;;;;;;12.73;5.10;;;22.00;76.70;;;;;;5067368;28;20045;-52
2024/02/07 11:48:41;;;;;;;5.32;4.05;;;21.90;76.90;;;;;;5035990;28;20481;-51
2024/02/07 11:51:11;;;;;;;6.57;3.60;;;21.80;77.10;;;;;;5036061;28;20381;-51
2024/02/07 11:53:41;;;;;;;5.00;3.33;;;21.70;77.20;;;;;;5035957;28;20184;-53
2024/02/07 11:56:17;;;;;;;7.65;3.55;;;21.70;77.30;;;;;;5034248;28;20084;-51
2024/02/07 11:58:46;;;;;;;5.57;3.70;;;22.00;77.30;;;;;;5035882;28;20109;-51
2024/02/07 12:01:12;;;;;;;20.33;7.20;;;22.30;76.80;;;;;;5035672;28;20053;-52
2024/02/07 12:03:38;;;;;;;12.57;5.05;;;22.40;76.70;;;;;;5035961;28;20075;-53
2024/02/07 12:06:11;;;;;;;7.75;4.35;;;22.40;76.50;;;;;;5017490;28;20079;-53
2024/02/07 12:08:38;;;;;;;5.60;4.00;;;;;;;;;;5035574;28;20041;-53
2024/02/07 12:11:08;;;;;;;7.70;4.57;;;23.50;84.40;;;;;;5035652;28;20032;-52
2024/02/07 12:13:35;;;;;;;7.90;5.15;;;23.70;75.90;;;;;;5035765;28;20053;-53
2024/02/07 12:16:04;;;;;;;11.23;3.80;;;24.10;75.40;;;;;;5035563;28;20029;-50
2024/02/07 12:18:30;;;;;;;6.63;3.83;;;23.70;74.10;;;;;;5035630;28;20032;-53
2024/02/07 12:21:01;;;;;;;4.93;3.50;;;23.50;74.40;;;;;;5035394;28;20400;-53
2024/02/07 12:23:30;;;;;;;6.72;3.67;;;23.00;74.30;;;;;;5035458;28;20033;-52
2024/02/07 12:26:01;;;;;;;18.63;5.13;;;22.70;74.30;;;;;;5017090;28;20068;-51
2024/02/07 12:28:27;;;;;;;7.95;3.80;;;22.50;75.40;;;;;;5035242;28;20389;-52
2024/02/07 12:30:57;;;;;;;8.27;4.47;;;22.80;76.50;;;;;;5016960;28;20103;-54
2024/02/07 12:33:23;;;;;;;5.60;3.60;;;22.50;75.80;;;;;;5033575;28;20120;-53
2024/02/07 12:35:59;;;;;;;8.00;4.03;;;22.50;75.30;;;;;;5033418;28;20038;-51
2024/02/07 12:38:26;;;;;;;13.57;6.32;;;;;;;;;;5035220;28;20113;-51
2024/02/07 12:40:53;;;;;;;6.18;3.67;;;22.00;77.80;;;;;;5034985;28;20049;-51
2024/02/07 12:43:23;;;;;;;6.63;3.75;;;22.00;79.00;;;;;;5034972;28;20053;-53
2024/02/07 12:45:57;;;;;;;7.10;3.67;;;21.90;77.20;;;;;;5035115;28;20068;-51
2024/02/07 12:48:25;;;;;;;7.10;4.20;;;21.90;76.10;;;;;;5041645;28;20464;-52
2024/02/07 12:50:54;;;;;;;5.35;3.42;;;21.80;76.20;;;;;;5053259;28;20060;-51
2024/02/07 12:53:20;;;;;;;5.50;3.63;;;21.80;76.10;;;;;;5054431;28;20060;-52
2024/02/07 12:55:52;;;;;;;9.07;4.45;;;21.60;96.50;;;;;;5051666;28;20029;-53
2024/02/07 12:58:18;;;;;;;5.40;3.70;;;21.50;76.80;;;;;;5054135;28;20032;-50
2024/02/07 13:00:44;;;;;;;6.25;3.60;;;21.60;77.10;;;;;;5054217;28;20123;-51
2024/02/07 13:03:12;;;;;;;6.97;3.92;;;21.60;76.50;;;;;;5023671;28;20384;-53
2024/02/07 13:05:55;;;;;;;14.95;4.25;;;;;;;;;;5074621;28;20477;-55
2024/02/07 13:08:21;;;;;;;6.50;4.03;;;21.70;76.60;;;;;;5231692;22;20054;-55
2024/02/07 13:10:47;;;;;;;6.00;3.97;;;21.70;77.40;;;;;;5002145;28;20042;-55
2024/02/07 13:13:13;;;;;;;8.00;4.75;;;21.70;76.90;;;;;;5009768;28;20030;-56
2024/02/07 13:15:39;;;;;;;8.73;4.53;;;21.80;76.80;;;;;;5014401;28;20053;-56
2024/02/07 13:18:05;;;;;;;8.77;4.45;;;21.70;76.00;;;;;;5014519;28;20124;-53
2024/02/07 13:20:31;;;;;;;14.68;5.50;;;21.70;76.40;;;;;;5013442;28;20049;-55
2024/02/07 13:22:56;;;;;;;7.68;4.93;;;21.70;76.60;;;;;;4996322;28;20026;-53
2024/02/07 13:25:23;;;;;;;8.75;5.13;;;21.60;76.60;;;;;;5009444;28;20039;-56
2024/02/07 13:27:49;;;;;;;17.48;6.85;;;21.60;76.60;;;;;;4994886;28;20034;-56
2024/02/07 13:30:16;;;;;;;8.63;5.00;;;21.50;76.70;;;;;;4994718;28;20080;-55
2024/02/07 13:32:42;;;;;;;10.23;4.65;;;21.50;77.00;;;;;;4992993;28;20053;-53
2024/02/07 13:35:08;;;;;;;7.97;4.25;;;21.30;76.90;;;;;;4994674;28;20035;-51
2024/02/07 13:37:33;;;;;;;5.60;3.75;;;21.10;77.10;;;;;;4992798;28;20035;-53
2024/02/07 13:39:59;;;;;;;5.78;3.75;;;20.80;77.10;;;;;;5009176;28;20042;-57
2024/02/07 13:42:25;;;;;;;8.05;4.25;;;20.70;78.40;;;;;;4994579;28;20034;-54
2024/02/07 13:44:51;;;;;;;5.53;3.78;;;20.50;78.60;;;;;;4994796;28;20054;-53
2024/02/07 13:47:18;;;;;;;7.57;4.25;;;20.40;79.20;;;;;;4994456;28;20031;-54
2024/02/07 13:49:44;;;;;;;9.18;4.30;;;20.30;79.10;;;;;;4994622;28;20088;-54
2024/02/07 13:52:10;;;;;;;8.75;4.40;;;20.10;79.20;;;;;;4994312;28;20035;-54
2024/02/07 13:54:36;;;;;;;10.60;5.00;;;;;;;;;;4994414;28;20022;-51
2024/02/07 13:57:02;;;;;;;16.80;6.50;;;;;;;;;;4994687;28;20026;-51
2024/02/07 13:59:29;;;;;;;13.55;7.80;;;;;;;;;;5008044;28;20050;-53
2024/02/07 14:01:55;;;;;;;12.95;6.15;;;;;;;;;;4992503;28;20038;-54